Time;durP1;ratioP1;P1;durP2;ratioP2;P2;SDS_P1;SDS_P2;PMS_P1;PMS_P2;Temp;Humidity;BMP_temperature;BMP_pressure;BME280_temperature;BME280_humidity;BME280_pressure;Samples;Min_cycle;Max_cycle;Signal;HPM_P1;HPM_P2
2021/05/09 00:00:18;;;;;;;1999.90;999.90;;;;;;;14.11;41.82;100807.28;15373090;28;20055;-61
2021/05/09 00:07:51;;;;;;;1999.90;999.90;;;;;;;14.12;41.72;100788.44;15373064;28;20520;-58
2021/05/09 00:15:24;;;;;;;1999.90;999.90;;;;;;;14.22;42.01;100779.53;15371684;28;20065;-58
2021/05/09 00:22:57;;;;;;;1999.90;999.90;;;;;;;14.23;42.15;100785.94;15354142;28;20055;-60
2021/05/09 00:30:29;;;;;;;1999.90;999.90;;;;;;;14.13;42.41;100788.09;15337887;29;20413;-59
2021/05/09 00:38:01;;;;;;;1999.90;999.90;;;;;;;14.22;42.34;100785.13;15353375;28;20051;-57
2021/05/09 00:45:33;;;;;;;1999.90;999.90;;;;;;;14.24;42.38;100773.56;15370781;28;20107;-60
2021/05/09 00:53:08;;;;;;;1999.90;999.90;;;;;;;14.28;42.84;100763.25;15370045;28;20138;-58
2021/05/09 01:00:39;;;;;;;1999.90;999.90;;;;;;;14.13;43.01;100747.97;15370428;29;20194;-61
2021/05/09 01:08:14;;;;;;;1999.90;999.90;;;;;;;14.25;43.12;100747.94;15352620;28;20126;-60
2021/05/09 01:15:47;;;;;;;1999.90;999.90;;;;;;;14.33;43.00;100752.59;15352650;28;20047;-60
2021/05/09 01:23:20;;;;;;;1999.90;999.90;;;;;;;14.27;43.82;100756.81;15336258;28;20408;-61
2021/05/09 01:30:53;;;;;;;;;;;;;;;14.36;43.81;100749.06;15351261;29;20047;-60
2021/05/09 01:38:26;;;;;;;1999.90;999.90;;;;;;;14.22;44.10;100731.00;15351411;29;19926;-57
2021/05/09 01:45:58;;;;;;;1999.90;999.90;;;;;;;14.02;44.45;100728.03;15350646;28;20492;-60
2021/05/09 01:53:30;;;;;;;1999.90;999.90;;;;;;;14.02;44.63;100714.00;15350126;28;20055;-59
2021/05/09 02:01:03;;;;;;;1999.90;999.90;;;;;;;13.99;45.23;100719.53;15367237;29;20076;-58
2021/05/09 02:08:46;;;;;;;1999.90;999.90;;;;;;;14.07;45.42;100712.94;15366482;28;20472;-59
2021/05/09 02:16:35;;;;;;;1999.90;999.90;;;;;;;14.08;45.67;100714.59;15366742;28;20066;-59
2021/05/09 02:24:11;;;;;;;1999.90;999.90;;;;;;;14.26;45.24;100715.06;15344419;28;20047;-58
2021/05/09 02:31:43;;;;;;;1999.90;999.90;;;;;;;14.07;45.47;100704.53;15375909;28;20055;-60
2021/05/09 02:39:27;;;;;;;1999.90;999.90;;;;;;;13.84;46.24;100712.66;15359782;29;20472;-58
2021/05/09 02:46:59;;;;;;;1999.90;999.90;;;;;;;13.80;46.50;100706.94;15358752;28;20158;-60
2021/05/09 02:54:33;;;;;;;;;;;;;;;13.79;46.48;100705.31;15342925;28;20047;-58
2021/05/09 03:02:05;;;;;;;1999.90;999.90;;;;;;;13.38;47.60;100703.66;15342706;29;19977;-60
2021/05/09 03:09:37;;;;;;;1999.90;999.90;;;;;;;13.32;47.71;100702.25;15342137;29;20062;-61
2021/05/09 03:17:09;;;;;;;1999.90;999.90;;;;;;;13.12;48.37;100709.56;15342215;28;20122;-61
2021/05/09 03:24:41;;;;;;;1999.90;999.90;;;;;;;13.11;48.53;100705.16;15340661;28;20372;-61
2021/05/09 03:32:13;;;;;;;1999.90;999.90;;;;;;;13.04;48.83;100699.34;15356520;28;20039;-59
2021/05/09 03:39:45;;;;;;;1999.90;999.90;;;;;;;12.87;49.62;100700.38;15373670;28;20059;-61
2021/05/09 03:47:17;;;;;;;1999.90;999.90;;;;;;;12.90;49.43;100708.06;15372598;28;20089;-60
2021/05/09 03:54:49;;;;;;;1999.90;999.90;;;;;;;13.05;49.85;100686.97;15398967;23;20142;-63
2021/05/09 04:02:21;;;;;;;1999.90;999.90;;;;;;;13.08;49.63;100686.25;15437427;28;20047;-63
2021/05/09 04:09:54;;;;;;;1999.90;999.90;;;;;;;13.17;50.00;100672.13;15427989;28;20046;-62
2021/05/09 04:17:25;;;;;;;1999.90;999.90;;;;;;;13.08;50.08;100666.63;15463538;28;20097;-62
2021/05/09 04:24:58;;;;;;;1999.90;999.90;;;;;;;13.15;50.60;100666.06;15480206;28;20091;-63
2021/05/09 04:32:29;;;;;;;1999.90;999.90;;;;;;;13.41;49.91;100666.50;15479761;28;20443;-61
2021/05/09 04:40:02;;;;;;;1999.90;999.90;;;;;;;13.52;50.18;100670.44;15495825;28;20045;-64
2021/05/09 04:47:33;;;;;;;1999.90;999.90;;;;;;;13.92;49.22;100657.59;15496816;28;20097;-61
2021/05/09 04:55:07;;;;;;;1999.90;999.90;;;;;;;13.97;49.67;100662.97;15478080;28;20265;-63
2021/05/09 05:02:51;;;;;;;1999.90;999.90;;;;;;;14.23;49.34;100670.88;15495266;28;20062;-63
2021/05/09 05:10:23;;;;;;;1999.90;999.90;;;;;;;14.63;48.76;100665.19;15477672;28;20096;-63
2021/05/09 05:17:55;;;;;;;1999.90;999.90;;;;;;;15.44;47.60;100685.22;15494491;28;20104;-63
2021/05/09 05:25:27;;;;;;;1999.90;999.90;;;;;;;15.64;47.17;100689.75;15493450;28;20049;-63
2021/05/09 05:32:59;;;;;;;1999.90;999.90;;;;;;;16.90;44.78;100676.94;15476762;28;20080;-62
2021/05/09 05:40:36;;;;;;;1999.90;999.90;;;;;;;16.80;45.38;100694.47;15461492;28;20050;-63
2021/05/09 05:48:08;;;;;;;1999.90;999.90;;;;;;;16.94;44.96;100681.44;15476417;28;20054;-62
2021/05/09 05:55:40;;;;;;;1999.90;999.90;;;;;;;17.78;43.77;100688.75;15460494;28;20140;-62
2021/05/09 06:03:12;;;;;;;1999.90;999.90;;;;;;;18.15;42.32;100677.56;15494514;28;20050;-63
2021/05/09 06:10:45;;;;;;;1999.90;999.90;;;;;;;18.84;41.48;100688.38;15494140;28;20094;-63
2021/05/09 06:18:16;;;;;;;1999.90;999.90;;;;;;;18.78;41.32;100684.28;15492906;28;20550;-62
2021/05/09 06:25:49;;;;;;;1999.90;999.90;;;;;;;18.12;42.25;100688.78;15492595;28;20042;-63
2021/05/09 06:33:20;;;;;;;1999.90;999.90;;;;;;;18.71;41.33;100690.69;15474361;28;20038;-62
2021/05/09 06:40:53;;;;;;;1999.90;999.90;;;;;;;19.87;39.94;100691.94;15492476;28;20038;-60
2021/05/09 06:48:24;;;;;;;1999.90;999.90;;;;;;;19.51;39.39;100685.25;15474164;28;20044;-61
2021/05/09 06:55:58;;;;;;;1999.90;999.90;;;;;;;19.67;40.29;100689.81;15474115;28;20342;-62
2021/05/09 07:03:30;;;;;;;1999.90;999.90;;;;;;;20.10;39.30;100677.47;15474435;28;20038;-60
2021/05/09 07:11:02;;;;;;;1999.90;999.90;;;;;;;19.79;40.25;100678.16;15502171;28;20046;-60
2021/05/09 07:18:34;;;;;;;1999.90;999.90;;;;;;;20.24;39.55;100687.25;15483138;28;20511;-64
2021/05/09 07:26:07;;;;;;;1999.90;999.90;;;;;;;20.35;39.92;100679.59;15483317;28;20460;-62
2021/05/09 07:33:38;;;;;;;1999.90;999.90;;;;;;;21.09;39.46;100673.22;15483935;28;20454;-63
2021/05/09 07:41:11;;;;;;;1999.90;999.90;;;;;;;21.77;37.80;100673.94;15501656;28;20046;-64
2021/05/09 07:48:42;;;;;;;1999.90;999.90;;;;;;;21.82;37.46;100673.53;15501082;28;20099;-63
2021/05/09 07:56:15;;;;;;;1999.90;999.90;;;;;;;22.55;36.53;100666.28;15500465;28;20070;-63
2021/05/09 08:03:46;;;;;;;1999.90;999.90;;;;;;;23.35;35.21;100673.81;15483334;28;20045;-63
2021/05/09 08:11:19;;;;;;;1999.90;999.90;;;;;;;24.70;34.50;100670.13;15482963;28;20046;-63
2021/05/09 08:18:51;;;;;;;1999.90;999.90;;;;;;;25.01;33.41;100668.03;15480069;28;20491;-65
2021/05/09 08:26:23;;;;;;;1999.90;999.90;;;;;;;26.24;32.11;100673.03;15464878;28;20415;-64
2021/05/09 08:33:54;;;;;;;1999.90;999.90;;;;;;;26.27;32.26;100652.94;15481172;28;20149;-63
2021/05/09 08:41:27;;;;;;;1999.90;999.90;;;;;;;27.09;31.38;100650.19;15443272;28;20046;-63
2021/05/09 08:48:59;;;;;;;1999.90;999.90;;;;;;;26.12;32.23;100649.56;15472303;28;20092;-61
2021/05/09 08:56:32;;;;;;;1999.90;999.90;;;;;;;26.76;31.80;100639.53;15474475;28;20054;-64
2021/05/09 09:04:04;;;;;;;1999.90;999.90;;;;;;;26.57;31.05;100637.53;15432814;28;20376;-65
2021/05/09 09:11:37;;;;;;;1999.90;999.90;;;;;;;26.73;31.26;100619.59;15432879;28;20039;-63
2021/05/09 09:19:09;;;;;;;;;;;;;;;27.84;30.44;100643.28;15432296;28;20126;-64
2021/05/09 09:26:43;;;;;;;1999.90;999.90;;;;;;;28.73;29.58;100624.13;15399989;28;19939;-63
2021/05/09 09:34:15;;;;;;;1999.90;999.90;;;;;;;29.06;29.60;100620.19;15425798;28;20118;-61
2021/05/09 09:41:48;;;;;;;1999.90;999.90;;;;;;;29.09;28.90;100620.09;15474354;28;20125;-63
2021/05/09 09:49:26;;;;;;;1999.90;999.90;;;;;;;29.31;28.39;100620.13;15476115;28;20066;-64
2021/05/09 09:56:59;;;;;;;1999.90;999.90;;;;;;;29.62;28.52;100611.66;15459283;28;20188;-63
2021/05/09 10:04:31;;;;;;;1999.90;999.90;;;;;;;30.13;27.52;100605.63;15493366;28;20058;-64
2021/05/09 10:12:04;;;;;;;1999.90;999.90;;;;;;;30.15;27.99;100608.81;15407728;28;20036;-64
2021/05/09 10:19:36;;;;;;;1999.90;999.90;;;;;;;30.45;28.38;100593.63;15415222;28;20492;-64
2021/05/09 10:27:10;;;;;;;1999.90;999.90;;;;;;;31.14;26.06;100595.25;15415500;28;20057;-65
2021/05/09 10:35:01;;;;;;;1999.90;999.90;;;;;;;30.02;27.12;100603.13;15433459;28;20039;-63
2021/05/09 10:42:33;;;;;;;1999.90;999.90;;;;;;;29.77;27.14;100575.31;15439402;28;20055;-63
2021/05/09 10:50:22;;;;;;;1999.90;999.90;;;;;;;30.56;26.18;100564.38;15426856;28;20526;-61
2021/05/09 10:57:54;;;;;;;1999.90;999.90;;;;;;;31.09;26.07;100569.97;15423704;28;20047;-60
2021/05/09 11:05:56;;;;;;;1999.90;999.90;;;;;;;30.70;26.29;100555.16;15409404;28;20061;-61
2021/05/09 11:13:28;;;;;;;;;;;;;;;30.02;26.90;100550.56;15435965;28;20046;-62
2021/05/09 11:21:00;;;;;;;1999.90;999.90;;;;;;;31.35;25.23;100538.78;15499630;28;19928;-57
2021/05/09 11:28:32;;;;;;;1999.90;999.90;;;;;;;32.15;25.23;100525.97;15426080;28;20093;-63
2021/05/09 11:36:04;;;;;;;1999.90;999.90;;;;;;;31.52;25.27;100511.22;15393178;28;20066;-62
2021/05/09 11:43:37;;;;;;;1999.90;999.90;;;;;;;31.86;25.10;100517.88;15436314;28;20149;-62
2021/05/09 11:51:08;;;;;;;1999.90;999.90;;;;;;;32.10;25.16;100509.31;15497728;28;20076;-57
2021/05/09 11:58:44;;;;;;;;;;;;;;;33.16;21.28;100510.94;15479860;28;20178;-59
2021/05/09 12:06:18;;;;;;;1999.90;999.90;;;;;;;32.81;20.91;100502.03;15408254;28;19930;-62
2021/05/09 12:13:51;;;;;;;1999.90;999.90;;;;;;;32.84;21.16;100495.31;15485392;28;20053;-62
2021/05/09 12:21:22;;;;;;;1999.90;999.90;;;;;;;35.23;20.08;100485.34;15464002;28;20583;-62
2021/05/09 12:29:14;;;;;;;1999.90;999.90;;;;;;;33.45;21.77;100475.50;15416407;28;20057;-61
2021/05/09 12:36:45;;;;;;;1999.90;999.90;;;;;;;35.24;19.40;100476.13;15437476;28;20050;-62
2021/05/09 12:44:22;;;;;;;1999.90;999.90;;;;;;;35.64;18.12;100462.81;15437852;28;20046;-63
2021/05/09 12:52:01;;;;;;;1999.90;999.90;;;;;;;37.07;18.50;100464.81;15418845;28;20050;-63
2021/05/09 12:59:46;;;;;;;1999.90;999.90;;;;;;;38.45;16.61;100452.97;15405130;28;20098;-62
2021/05/09 13:07:19;;;;;;;1999.90;999.90;;;;;;;36.35;17.76;100445.69;15433232;28;20133;-65
2021/05/09 13:14:53;;;;;;;1999.90;999.90;;;;;;;35.90;17.49;100453.31;15423579;28;20039;-62
2021/05/09 13:22:25;;;;;;;1999.90;999.90;;;;;;;33.39;20.38;100445.69;15484655;28;20406;-63
2021/05/09 13:29:58;;;;;;;1999.90;999.90;;;;;;;31.88;21.72;100441.09;15477132;28;20090;-60
2021/05/09 13:37:30;;;;;;;1999.90;999.90;;;;;;;30.69;23.21;100415.34;15471949;28;20451;-61
2021/05/09 13:45:03;;;;;;;1999.90;999.90;;;;;;;30.32;24.55;100413.69;15450098;28;20049;-63
2021/05/09 13:52:35;;;;;;;1999.90;999.90;;;;;;;29.81;24.14;100409.22;15377908;28;20084;-62
2021/05/09 14:00:09;;;;;;;1999.90;999.90;;;;;;;29.68;24.91;100399.88;15372822;29;20094;-62
2021/05/09 14:07:41;;;;;;;1999.90;999.90;;;;;;;30.05;24.67;100383.56;15373056;29;20412;-63
2021/05/09 14:15:14;;;;;;;1999.90;999.90;;;;;;;30.08;25.13;100378.94;15360583;28;20042;-62
2021/05/09 14:22:46;;;;;;;1999.90;999.90;;;;;;;29.93;24.66;100367.22;15366789;29;20134;-63
2021/05/09 14:30:19;;;;;;;1999.90;999.90;;;;;;;30.07;25.46;100360.09;15384409;29;20055;-63
2021/05/09 14:37:50;;;;;;;1999.90;999.90;;;;;;;29.46;25.59;100364.63;15366617;29;20051;-63
2021/05/09 14:45:23;;;;;;;1999.90;999.90;;;;;;;29.77;25.45;100350.25;15366778;29;20047;-61
2021/05/09 14:52:55;;;;;;;1999.90;999.90;;;;;;;29.39;26.44;100347.66;15366417;29;20051;-62
2021/05/09 15:00:27;;;;;;;1999.90;999.90;;;;;;;29.37;26.60;100339.50;15375880;29;20412;-62
2021/05/09 15:07:59;;;;;;;1999.90;999.90;;;;;;;29.55;26.29;100336.75;15381542;29;20510;-62
2021/05/09 15:15:32;;;;;;;1999.90;999.90;;;;;;;29.84;26.24;100319.13;15380676;29;20093;-62
2021/05/09 15:23:04;;;;;;;1999.90;999.90;;;;;;;29.63;26.56;100311.38;15380264;29;20309;-61
2021/05/09 15:30:36;;;;;;;1999.90;999.90;;;;;;;29.25;25.83;100298.13;15379844;28;20039;-61
2021/05/09 15:38:08;;;;;;;1999.90;999.90;;;;;;;29.77;25.40;100292.72;15425407;28;20063;-59
2021/05/09 15:45:40;;;;;;;1999.90;999.90;;;;;;;29.51;26.11;100284.38;15401593;28;20523;-60
2021/05/09 15:53:12;;;;;;;1999.90;999.90;;;;;;;29.01;26.15;100285.56;15433003;28;20102;-61
2021/05/09 16:00:44;;;;;;;1999.90;999.90;;;;;;;29.01;26.82;100289.22;15315967;23;20060;-61
2021/05/09 16:08:17;;;;;;;1999.90;999.90;;;;;;;29.36;26.80;100283.31;15293790;29;20079;-61
2021/05/09 16:15:50;;;;;;;1999.90;999.90;;;;;;;29.47;28.25;100268.50;15310763;29;20044;-58
2021/05/09 16:23:21;;;;;;;1999.90;999.90;;;;;;;29.46;28.61;100270.59;15311631;29;20568;-58
2021/05/09 16:30:54;;;;;;;1999.90;999.90;;;;;;;29.28;29.74;100242.59;15310852;29;20446;-57
2021/05/09 16:38:25;;;;;;;1999.90;999.90;;;;;;;29.31;29.35;100235.91;15308345;29;20048;-59
2021/05/09 16:45:58;;;;;;;1999.90;999.90;;;;;;;28.74;30.81;100226.69;15309598;29;20405;-58
2021/05/09 16:53:34;;;;;;;1999.90;999.90;;;;;;;28.72;29.60;100222.69;15275423;29;20207;-59
2021/05/09 17:01:07;;;;;;;1999.90;999.90;;;;;;;28.73;29.11;100218.53;15308379;29;20048;-59
2021/05/09 17:08:46;;;;;;;1999.90;999.90;;;;;;;28.82;29.04;100224.34;15980915;27;20762;-57
2021/05/09 17:16:17;;;;;;;1999.90;999.90;;;;;;;28.96;29.73;100231.59;15920796;27;20066;-59
2021/05/09 17:23:50;;;;;;;;;;;;;;;28.67;29.70;100220.44;15935149;27;20050;-57
2021/05/09 17:31:22;;;;;;;1999.90;999.90;;;;;;;28.55;29.63;100219.22;15948115;27;19919;-59
2021/05/09 17:38:54;;;;;;;1999.90;999.90;;;;;;;28.35;29.66;100225.34;15895451;27;20047;-56
2021/05/09 17:46:26;;;;;;;1999.90;999.90;;;;;;;28.21;31.00;100217.22;15951643;27;20043;-63
2021/05/09 17:53:58;;;;;;;1999.90;999.90;;;;;;;27.11;35.98;100219.00;15916978;27;20140;-61
2021/05/09 18:01:30;;;;;;;1999.90;999.90;;;;;;;27.07;34.30;100212.56;15916949;27;20078;-61
2021/05/09 18:09:03;;;;;;;1999.90;999.90;;;;;;;27.15;34.01;100208.22;15919763;27;20047;-62
2021/05/09 18:16:39;;;;;;;1999.90;999.90;;;;;;;27.14;34.25;100209.47;15877314;27;20040;-63
2021/05/09 18:24:12;;;;;;;1999.90;999.90;;;;;;;26.71;34.93;100207.97;15851899;27;20032;-62
2021/05/09 18:31:44;;;;;;;1999.90;999.90;;;;;;;26.60;35.44;100207.47;15845934;27;20574;-62
2021/05/09 18:39:17;;;;;;;1999.90;999.90;;;;;;;26.56;35.32;100217.41;15846905;27;20067;-62
2021/05/09 18:46:50;;;;;;;;;;;;;;;26.57;35.83;100228.41;15861728;27;20050;-62
2021/05/09 18:54:24;;;;;;;1999.90;999.90;;;;;;;26.13;36.83;100235.81;15819768;27;20310;-62
2021/05/09 19:01:57;;;;;;;1999.90;999.90;;;;;;;25.78;37.81;100232.69;15801936;28;20143;-62
2021/05/09 19:09:30;;;;;;;1999.90;999.90;;;;;;;24.82;39.53;100252.13;15802424;28;20154;-63
2021/05/09 19:17:02;;;;;;;1999.90;999.90;;;;;;;24.61;39.94;100242.00;15802140;28;20576;-62
2021/05/09 19:24:35;;;;;;;1999.90;999.90;;;;;;;24.18;40.70;100239.22;15801923;28;20044;-64
2021/05/09 19:32:07;;;;;;;1999.90;999.90;;;;;;;24.22;40.14;100247.66;15844921;27;20062;-62
2021/05/09 19:39:40;;;;;;;1999.90;999.90;;;;;;;24.36;40.34;100242.50;15863309;28;20051;-64
2021/05/09 19:47:12;;;;;;;1999.90;999.90;;;;;;;24.24;40.18;100245.19;15845070;28;20043;-62
2021/05/09 19:54:48;;;;;;;1999.90;999.90;;;;;;;23.85;41.07;100238.19;15862069;28;20070;-63
2021/05/09 20:02:23;;;;;;;1999.90;999.90;;;;;;;23.72;41.88;100232.31;15863174;28;20143;-65
2021/05/09 20:09:56;;;;;;;1999.90;999.90;;;;;;;23.57;42.10;100239.50;15859713;28;20101;-64
2021/05/09 20:17:29;;;;;;;1999.90;999.90;;;;;;;23.79;41.19;100240.75;15859246;28;20063;-62
2021/05/09 20:25:02;;;;;;;1999.90;999.90;;;;;;;23.70;40.99;100239.72;15870318;27;20126;-65
2021/05/09 20:32:35;;;;;;;1999.90;999.90;;;;;;;23.86;40.68;100251.19;15865154;27;20368;-63
2021/05/09 20:40:09;;;;;;;1999.90;999.90;;;;;;;23.72;41.27;100248.63;15855742;28;20258;-61
2021/05/09 20:47:41;;;;;;;1999.90;999.90;;;;;;;23.53;41.17;100252.97;15840652;28;20542;-64
2021/05/09 20:55:14;;;;;;;1999.90;999.90;;;;;;;23.44;41.54;100238.47;15857630;28;20035;-64
2021/05/09 21:02:46;;;;;;;1999.90;999.90;;;;;;;23.20;42.02;100232.78;15856133;28;20036;-65
2021/05/09 21:10:18;;;;;;;1999.90;999.90;;;;;;;23.23;41.46;100231.91;15858817;28;20536;-64
2021/05/09 21:17:50;;;;;;;1999.90;999.90;;;;;;;23.11;41.57;100228.88;15857353;28;20510;-63
2021/05/09 21:25:22;;;;;;;1999.90;999.90;;;;;;;23.14;41.54;100225.97;15856741;28;20040;-62
2021/05/09 21:32:55;;;;;;;1999.90;999.90;;;;;;;23.04;41.69;100242.00;15856463;28;20357;-64
2021/05/09 21:40:29;;;;;;;1999.90;999.90;;;;;;;22.87;41.75;100230.88;15856265;28;20127;-63
2021/05/09 21:48:01;;;;;;;1999.90;999.90;;;;;;;22.88;41.39;100227.59;15855772;28;20154;-62
2021/05/09 21:55:35;;;;;;;1999.90;999.90;;;;;;;22.73;41.68;100224.13;15850125;28;20048;-63
2021/05/09 22:03:07;;;;;;;1999.90;999.90;;;;;;;22.68;41.74;100218.91;15867814;28;20047;-63
2021/05/09 22:10:41;;;;;;;1999.90;999.90;;;;;;;22.37;42.23;100220.16;15866791;28;20115;-63
2021/05/09 22:18:12;;;;;;;1999.90;999.90;;;;;;;22.39;41.94;100212.78;15867298;28;20149;-63
2021/05/09 22:25:45;;;;;;;1999.90;999.90;;;;;;;22.18;42.47;100215.91;15867663;28;20119;-62
2021/05/09 22:33:17;;;;;;;1999.90;999.90;;;;;;;22.13;42.48;100205.03;15867433;28;20176;-62
2021/05/09 22:40:49;;;;;;;1999.90;999.90;;;;;;;22.07;41.97;100204.66;15848831;28;20040;-63
2021/05/09 22:48:21;;;;;;;1999.90;999.90;;;;;;;22.00;42.18;100207.59;15864817;28;20412;-63
2021/05/09 22:55:53;;;;;;;1999.90;999.90;;;;;;;21.96;42.00;100203.16;15864319;28;20160;-63
2021/05/09 23:03:25;;;;;;;1999.90;999.90;;;;;;;21.93;42.28;100189.81;15863472;28;20036;-63
2021/05/09 23:10:58;;;;;;;1999.90;999.90;;;;;;;21.70;42.68;100184.78;15845647;28;20046;-63
2021/05/09 23:18:45;;;;;;;1999.90;999.90;;;;;;;21.61;42.64;100177.56;15861930;28;20151;-62
2021/05/09 23:26:17;;;;;;;1999.90;999.90;;;;;;;21.57;42.98;100173.97;15845478;28;20043;-59
2021/05/09 23:33:49;;;;;;;1999.90;999.90;;;;;;;21.40;43.01;100172.09;15844966;28;20099;-59
2021/05/09 23:41:22;;;;;;;1999.90;999.90;;;;;;;21.33;43.71;100166.50;15862740;28;20054;-60
2021/05/09 23:48:54;;;;;;;1999.90;999.90;;;;;;;21.08;45.27;100183.72;15844468;28;20417;-62
2021/05/09 23:56:26;;;;;;;1999.90;999.90;;;;;;;20.80;45.06;100178.25;15861279;28;20040;-61
